»·PEaware :: N35MU KSAN-KTRM

N35MU :: KSAN-KTRM

FLIGHT INFORMATION

Flight Status: Arrived
Operator: Privately registered:
United States
More flights under this callsign
Pilot: Tim M. (20242)
Aircraft: CESSNA 172 SKYHAWK
(C172)
More flights by this aircraft type
Origin: KSAN San Diego Intl-Lindbergh
United States
Destination: KTRM Desert Resorts Regl
United States
More flights between these airports :: More routes between these airports
Route: JLI
File this flight plan on PilotEdge
Remarks: VFR
Altitude:
(Current/Filed)
7,500ft
Speed:
(Current/Filed)
115kts
Departed: 02-Oct-18 11:02 AM
Arrived: 02-Oct-18 12:13 PM
Distance/Time
Traveled:
75nm/1:10
Distance/Time
To Go:
Arrived

Flight Plot

Page will automatically refresh every two minutes.

Flight plan parsing failed; only flown route is shown


Map Options




Map Legend


Flown Route
Filed Route
Departure Airport
Arrival Airport
Navaid (VOR, NDB)
Fix

Horizontal Profiles

Position Reports

Time Latitude Longitude Heading Altitude Ground
Speed
02-Oct-18 10:40 32.732062 -117.193350 285 17ft 0kts
02-Oct-18 10:41 32.732062 -117.193350 285 17ft 0kts
02-Oct-18 10:42 32.732063 -117.193350 285 17ft 0kts
02-Oct-18 10:43 32.732063 -117.193350 285 17ft 0kts
02-Oct-18 10:44 32.732063 -117.193350 285 17ft 0kts
02-Oct-18 10:45 32.732063 -117.193350 285 17ft 0kts
02-Oct-18 10:46 32.732063 -117.193350 285 17ft 0kts
02-Oct-18 10:47 32.732063 -117.193350 285 17ft 0kts
02-Oct-18 10:48 32.732063 -117.193350 285 17ft 0kts
02-Oct-18 10:49 32.732063 -117.193350 285 17ft 0kts
02-Oct-18 10:50 32.732063 -117.193350 285 17ft 0kts
02-Oct-18 10:51 32.732063 -117.193350 285 17ft 0kts
02-Oct-18 10:52 32.732063 -117.193350 285 17ft 0kts
02-Oct-18 10:53 32.732063 -117.193350 285 17ft 0kts
02-Oct-18 10:54 32.732063 -117.193350 285 17ft 0kts
02-Oct-18 10:55 32.733053 -117.193320 13 17ft 0kts
02-Oct-18 10:56 32.732003 -117.187555 105 14ft 29kts
02-Oct-18 10:57 32.729428 -117.176964 80 19ft 22kts
02-Oct-18 10:58 32.729397 -117.176456 111 19ft 0kts
02-Oct-18 10:59 32.729397 -117.176456 111 19ft 0kts
02-Oct-18 11:00 32.729397 -117.176456 111 19ft 0kts
02-Oct-18 11:01 32.729434 -117.176375 41 19ft 0kts
02-Oct-18 11:02 32.729434 -117.176375 41 19ft 0kts
02-Oct-18 11:03 32.730834 -117.178683 281 17ft 33kts
02-Oct-18 11:04 32.735597 -117.197322 281 249ft 71kts
02-Oct-18 11:05 32.748391 -117.217160 320 832ft 97kts
02-Oct-18 11:06 32.771982 -117.238712 321 1238ft 117kts
02-Oct-18 11:07 32.798419 -117.263099 321 1640ft 121kts
02-Oct-18 11:08 32.825166 -117.287757 321 1987ft 124kts
02-Oct-18 11:09 32.853158 -117.313420 321 1990ft 128kts
02-Oct-18 11:10 32.886429 -117.320122 9 1989ft 130kts
02-Oct-18 11:11 32.921977 -117.313079 9 1989ft 130kts
02-Oct-18 11:12 32.956525 -117.306232 9 2000ft 124kts
02-Oct-18 11:13 32.988071 -117.298928 31 2326ft 109kts
02-Oct-18 11:14 33.010433 -117.279024 38 2719ft 98kts
02-Oct-18 11:15 33.031790 -117.259806 38 3121ft 95kts
02-Oct-18 11:16 33.046670 -117.236090 83 3511ft 92kts
02-Oct-18 11:17 33.051348 -117.205424 83 3817ft 95kts
02-Oct-18 11:18 33.057195 -117.174573 66 4122ft 98kts
02-Oct-18 11:19 33.070307 -117.146124 64 4428ft 98kts
02-Oct-18 11:20 33.083452 -117.117847 64 4734ft 98kts
02-Oct-18 11:21 33.096629 -117.089546 64 5041ft 98kts
02-Oct-18 11:22 33.100472 -117.057440 88 5342ft 112kts
02-Oct-18 11:23 33.103505 -117.020060 87 5722ft 115kts
02-Oct-18 11:24 33.106687 -116.982478 87 6112ft 114kts
02-Oct-18 11:25 33.109925 -116.944993 87 6504ft 114kts
02-Oct-18 11:26 33.113163 -116.907694 87 6899ft 112kts
02-Oct-18 11:27 33.116348 -116.871115 86 7292ft 109kts
02-Oct-18 11:28 33.119529 -116.834352 86 7507ft 120kts
02-Oct-18 11:29 33.123021 -116.793717 86 7506ft 124kts
02-Oct-18 11:30 33.126464 -116.753538 86 7506ft 122kts
02-Oct-18 11:31 33.129898 -116.713463 86 7507ft 122kts
02-Oct-18 11:32 33.133346 -116.673181 86 7507ft 122kts
02-Oct-18 11:33 33.136858 -116.632903 86 7506ft 122kts
02-Oct-18 11:34 33.140411 -116.592611 86 7504ft 122kts
02-Oct-18 11:35 33.160062 -116.562454 31 7500ft 125kts
02-Oct-18 11:36 33.189256 -116.540184 31 7562ft 120kts
02-Oct-18 11:37 33.217132 -116.517388 32 7575ft 124kts
02-Oct-18 11:38 33.245243 -116.493465 33 7556ft 123kts
02-Oct-18 11:39 33.272829 -116.469520 33 7533ft 122kts
02-Oct-18 11:40 33.299841 -116.445858 33 7514ft 121kts
02-Oct-18 11:41 33.327459 -116.423371 32 7502ft 120kts
02-Oct-18 11:42 33.354458 -116.399907 33 7492ft 120kts
02-Oct-18 11:43 33.381330 -116.376459 33 7491ft 119kts
02-Oct-18 11:44 33.408226 -116.352969 33 7491ft 119kts
02-Oct-18 11:45 33.434815 -116.329729 33 7490ft 119kts
02-Oct-18 11:46 33.461523 -116.306364 33 7490ft 120kts
02-Oct-18 11:47 33.488098 -116.283041 34 7224ft 118kts
02-Oct-18 11:48 33.514450 -116.259890 34 6259ft 116kts
02-Oct-18 11:49 33.540016 -116.237155 43 5371ft 115kts
02-Oct-18 11:50 33.559793 -116.207222 51 4564ft 114kts
02-Oct-18 11:51 33.579140 -116.177692 51 3853ft 109kts
02-Oct-18 11:52 33.602542 -116.158306 356 2412ft 108kts
02-Oct-18 11:53 33.638700 -116.159123 8 1031ft 121kts
02-Oct-18 11:54 33.653036 -116.137972 113 1046ft 108kts
02-Oct-18 11:55 33.646826 -116.133017 177 986ft 109kts
02-Oct-18 11:56 33.646826 -116.133017 177 986ft 109kts
02-Oct-18 11:57 33.646826 -116.133017 177 986ft 109kts
02-Oct-18 11:58 33.646826 -116.133017 177 986ft 109kts
02-Oct-18 11:59 33.646826 -116.133017 177 986ft 109kts
02-Oct-18 12:00 33.646826 -116.133017 177 986ft 109kts
02-Oct-18 12:01 33.646826 -116.133017 177 986ft 109kts
02-Oct-18 12:02 33.646826 -116.133017 177 986ft 109kts
02-Oct-18 12:03 33.646826 -116.133017 177 986ft 109kts
02-Oct-18 12:04 33.646826 -116.133017 177 986ft 109kts
02-Oct-18 12:05 33.646826 -116.133017 177 986ft 109kts
02-Oct-18 12:06 33.646826 -116.133017 177 986ft 109kts
02-Oct-18 12:07 33.646826 -116.133017 177 986ft 109kts
02-Oct-18 12:08 33.646826 -116.133017 177 986ft 109kts
02-Oct-18 12:09 33.646826 -116.133017 177 986ft 109kts
02-Oct-18 12:10 33.646826 -116.133017 177 986ft 109kts
02-Oct-18 12:11 33.620569 -116.134349 180 946ft 102kts
02-Oct-18 12:12 33.591685 -116.135597 199 828ft 102kts
02-Oct-18 12:13 33.602423 -116.154340 348 474ft 94kts
02-Oct-18 12:14 33.626648 -116.156420 0 -106ft 65kts
02-Oct-18 12:15 33.633623 -116.154749 182 -113ft 14kts
02-Oct-18 12:16 33.632477 -116.154728 179 -113ft 0kts
02-Oct-18 12:17 33.632477 -116.154728 179 -113ft 0kts
02-Oct-18 12:18 33.632477 -116.154728 179 -113ft 0kts
02-Oct-18 12:19 33.632477 -116.154728 179 -113ft 0kts
02-Oct-18 12:20 33.632477 -116.154728 179 -113ft 0kts
02-Oct-18 12:21 33.632477 -116.154728 179 -113ft 0kts
02-Oct-18 12:22 33.632477 -116.154728 179 -113ft 0kts
02-Oct-18 12:23 33.632477 -116.154728 179 -113ft 0kts
02-Oct-18 12:24 33.632477 -116.154728 179 -113ft 0kts

Navigation Log

Ident Type
Flight plan parsing failed, navigation log unavailable